sensor_id;sensor_type;location;lat;lon;timestamp;P1;durP1;ratioP1;P2;durP2;ratioP2
20417;SDS011;10368;51.436;6.774;2022-07-10T00:00:09;5.20;;;1.20;;
20417;SDS011;10368;51.436;6.774;2022-07-10T00:02:37;3.17;;;1.17;;
20417;SDS011;10368;51.436;6.774;2022-07-10T00:05:05;4.90;;;1.55;;
20417;SDS011;10368;51.436;6.774;2022-07-10T00:07:33;5.32;;;1.42;;
20417;SDS011;10368;51.436;6.774;2022-07-10T00:10:01;1.95;;;1.27;;
20417;SDS011;10368;51.436;6.774;2022-07-10T00:12:28;3.65;;;1.63;;
20417;SDS011;10368;51.436;6.774;2022-07-10T00:14:56;3.38;;;1.73;;
20417;SDS011;10368;51.436;6.774;2022-07-10T00:17:23;3.65;;;1.23;;
20417;SDS011;10368;51.436;6.774;2022-07-10T00:19:50;3.78;;;1.17;;
20417;SDS011;10368;51.436;6.774;2022-07-10T00:22:18;3.90;;;1.00;;
20417;SDS011;10368;51.436;6.774;2022-07-10T00:24:45;2.97;;;1.40;;
20417;SDS011;10368;51.436;6.774;2022-07-10T00:27:12;3.40;;;1.10;;
20417;SDS011;10368;51.436;6.774;2022-07-10T00:29:40;5.28;;;1.38;;
20417;SDS011;10368;51.436;6.774;2022-07-10T00:32:08;8.90;;;1.92;;
20417;SDS011;10368;51.436;6.774;2022-07-10T00:34:35;4.20;;;1.60;;
20417;SDS011;10368;51.436;6.774;2022-07-10T00:37:03;3.42;;;1.30;;
20417;SDS011;10368;51.436;6.774;2022-07-10T00:39:31;4.65;;;2.45;;
20417;SDS011;10368;51.436;6.774;2022-07-10T00:42:11;4.82;;;2.70;;
20417;SDS011;10368;51.436;6.774;2022-07-10T00:44:40;9.13;;;1.58;;
20417;SDS011;10368;51.436;6.774;2022-07-10T00:47:08;8.07;;;2.83;;
20417;SDS011;10368;51.436;6.774;2022-07-10T00:49:36;3.47;;;1.50;;
20417;SDS011;10368;51.436;6.774;2022-07-10T00:52:06;3.42;;;1.50;;
20417;SDS011;10368;51.436;6.774;2022-07-10T00:54:34;7.15;;;2.42;;
20417;SDS011;10368;51.436;6.774;2022-07-10T00:57:03;5.03;;;1.95;;
20417;SDS011;10368;51.436;6.774;2022-07-10T00:59:31;4.95;;;2.30;;
20417;SDS011;10368;51.436;6.774;2022-07-10T01:01:59;7.60;;;2.92;;
20417;SDS011;10368;51.436;6.774;2022-07-10T01:04:27;6.15;;;2.10;;
20417;SDS011;10368;51.436;6.774;2022-07-10T01:06:57;3.28;;;1.80;;
20417;SDS011;10368;51.436;6.774;2022-07-10T01:09:25;4.20;;;1.90;;
20417;SDS011;10368;51.436;6.774;2022-07-10T01:11:52;5.40;;;1.52;;
20417;SDS011;10368;51.436;6.774;2022-07-10T01:14:21;4.75;;;1.83;;
20417;SDS011;10368;51.436;6.774;2022-07-10T01:16:48;5.68;;;1.40;;
20417;SDS011;10368;51.436;6.774;2022-07-10T01:19:16;4.78;;;1.58;;
20417;SDS011;10368;51.436;6.774;2022-07-10T01:21:43;5.90;;;2.20;;
20417;SDS011;10368;51.436;6.774;2022-07-10T01:24:11;2.88;;;1.45;;
20417;SDS011;10368;51.436;6.774;2022-07-10T01:26:38;4.43;;;1.55;;
20417;SDS011;10368;51.436;6.774;2022-07-10T01:29:09;3.35;;;2.00;;
20417;SDS011;10368;51.436;6.774;2022-07-10T01:31:40;6.15;;;2.20;;
20417;SDS011;10368;51.436;6.774;2022-07-10T01:34:08;4.25;;;1.73;;
20417;SDS011;10368;51.436;6.774;2022-07-10T01:36:36;6.22;;;1.55;;
20417;SDS011;10368;51.436;6.774;2022-07-10T01:39:04;7.32;;;2.20;;
20417;SDS011;10368;51.436;6.774;2022-07-10T01:41:32;6.57;;;1.63;;
20417;SDS011;10368;51.436;6.774;2022-07-10T01:43:59;6.10;;;1.83;;
20417;SDS011;10368;51.436;6.774;2022-07-10T01:46:26;5.63;;;2.25;;
20417;SDS011;10368;51.436;6.774;2022-07-10T01:48:54;3.20;;;1.73;;
20417;SDS011;10368;51.436;6.774;2022-07-10T01:51:21;4.10;;;1.80;;
20417;SDS011;10368;51.436;6.774;2022-07-10T01:53:49;3.55;;;1.95;;
20417;SDS011;10368;51.436;6.774;2022-07-10T01:56:16;6.38;;;1.80;;
20417;SDS011;10368;51.436;6.774;2022-07-10T01:58:44;4.10;;;1.88;;
20417;SDS011;10368;51.436;6.774;2022-07-10T02:01:12;4.70;;;1.77;;
20417;SDS011;10368;51.436;6.774;2022-07-10T02:03:39;4.63;;;1.58;;
20417;SDS011;10368;51.436;6.774;2022-07-10T02:06:25;5.50;;;1.58;;
20417;SDS011;10368;51.436;6.774;2022-07-10T02:08:53;3.78;;;1.50;;
20417;SDS011;10368;51.436;6.774;2022-07-10T02:11:22;2.17;;;1.10;;
20417;SDS011;10368;51.436;6.774;2022-07-10T02:13:49;4.93;;;1.58;;
20417;SDS011;10368;51.436;6.774;2022-07-10T02:16:16;4.82;;;1.63;;
20417;SDS011;10368;51.436;6.774;2022-07-10T02:18:44;3.22;;;1.65;;
20417;SDS011;10368;51.436;6.774;2022-07-10T02:21:11;4.85;;;1.50;;
20417;SDS011;10368;51.436;6.774;2022-07-10T02:23:39;2.92;;;1.10;;
20417;SDS011;10368;51.436;6.774;2022-07-10T02:26:07;3.72;;;1.60;;
20417;SDS011;10368;51.436;6.774;2022-07-10T02:28:34;3.45;;;1.30;;
20417;SDS011;10368;51.436;6.774;2022-07-10T02:31:02;4.45;;;2.00;;
20417;SDS011;10368;51.436;6.774;2022-07-10T02:33:30;5.72;;;2.22;;
20417;SDS011;10368;51.436;6.774;2022-07-10T02:35:57;2.95;;;1.63;;
20417;SDS011;10368;51.436;6.774;2022-07-10T02:38:27;6.80;;;1.73;;
20417;SDS011;10368;51.436;6.774;2022-07-10T02:40:55;4.85;;;2.30;;
20417;SDS011;10368;51.436;6.774;2022-07-10T02:43:22;7.10;;;2.40;;
20417;SDS011;10368;51.436;6.774;2022-07-10T02:45:49;6.68;;;1.75;;
20417;SDS011;10368;51.436;6.774;2022-07-10T02:48:17;4.68;;;1.83;;
20417;SDS011;10368;51.436;6.774;2022-07-10T02:50:44;6.47;;;2.05;;
20417;SDS011;10368;51.436;6.774;2022-07-10T02:53:11;7.05;;;2.05;;
20417;SDS011;10368;51.436;6.774;2022-07-10T02:55:39;5.75;;;1.60;;
20417;SDS011;10368;51.436;6.774;2022-07-10T02:58:06;6.57;;;1.98;;
20417;SDS011;10368;51.436;6.774;2022-07-10T03:00:36;5.55;;;1.60;;
20417;SDS011;10368;51.436;6.774;2022-07-10T03:03:03;7.83;;;1.70;;
20417;SDS011;10368;51.436;6.774;2022-07-10T03:05:30;6.38;;;1.95;;
20417;SDS011;10368;51.436;6.774;2022-07-10T03:07:58;3.42;;;1.50;;
20417;SDS011;10368;51.436;6.774;2022-07-10T03:10:25;5.10;;;1.83;;
20417;SDS011;10368;51.436;6.774;2022-07-10T03:12:53;4.60;;;1.53;;
20417;SDS011;10368;51.436;6.774;2022-07-10T03:15:20;6.47;;;1.80;;
20417;SDS011;10368;51.436;6.774;2022-07-10T03:17:48;7.13;;;1.60;;
20417;SDS011;10368;51.436;6.774;2022-07-10T03:20:15;1.95;;;1.45;;
20417;SDS011;10368;51.436;6.774;2022-07-10T03:22:42;3.73;;;1.60;;
20417;SDS011;10368;51.436;6.774;2022-07-10T03:25:10;4.38;;;1.52;;
20417;SDS011;10368;51.436;6.774;2022-07-10T03:27:37;5.13;;;1.57;;
20417;SDS011;10368;51.436;6.774;2022-07-10T03:30:05;4.87;;;2.17;;
20417;SDS011;10368;51.436;6.774;2022-07-10T03:32:32;9.60;;;2.00;;
20417;SDS011;10368;51.436;6.774;2022-07-10T03:35:00;4.07;;;1.43;;
20417;SDS011;10368;51.436;6.774;2022-07-10T03:37:27;3.57;;;1.60;;
20417;SDS011;10368;51.436;6.774;2022-07-10T03:39:54;14.67;;;1.90;;
20417;SDS011;10368;51.436;6.774;2022-07-10T03:42:22;2.07;;;1.83;;
20417;SDS011;10368;51.436;6.774;2022-07-10T03:44:49;4.43;;;1.87;;
20417;SDS011;10368;51.436;6.774;2022-07-10T03:47:16;4.03;;;1.80;;
20417;SDS011;10368;51.436;6.774;2022-07-10T03:49:44;4.53;;;1.80;;
20417;SDS011;10368;51.436;6.774;2022-07-10T03:52:11;9.53;;;1.87;;
20417;SDS011;10368;51.436;6.774;2022-07-10T03:54:38;4.33;;;1.47;;
20417;SDS011;10368;51.436;6.774;2022-07-10T03:57:06;5.07;;;1.97;;
20417;SDS011;10368;51.436;6.774;2022-07-10T03:59:52;6.23;;;1.67;;
20417;SDS011;10368;51.436;6.774;2022-07-10T04:02:19;4.20;;;2.00;;
20417;SDS011;10368;51.436;6.774;2022-07-10T04:04:46;6.07;;;1.93;;
20417;SDS011;10368;51.436;6.774;2022-07-10T04:07:14;8.67;;;1.83;;
20417;SDS011;10368;51.436;6.774;2022-07-10T04:09:42;5.20;;;2.37;;
20417;SDS011;10368;51.436;6.774;2022-07-10T04:12:09;6.53;;;1.90;;
20417;SDS011;10368;51.436;6.774;2022-07-10T04:14:37;4.10;;;1.93;;
20417;SDS011;10368;51.436;6.774;2022-07-10T04:17:04;6.47;;;2.17;;
20417;SDS011;10368;51.436;6.774;2022-07-10T04:19:31;7.60;;;2.73;;
20417;SDS011;10368;51.436;6.774;2022-07-10T04:21:59;5.00;;;1.90;;
20417;SDS011;10368;51.436;6.774;2022-07-10T04:24:26;4.00;;;2.10;;
20417;SDS011;10368;51.436;6.774;2022-07-10T04:26:54;7.43;;;2.47;;
20417;SDS011;10368;51.436;6.774;2022-07-10T04:29:21;2.63;;;2.03;;
20417;SDS011;10368;51.436;6.774;2022-07-10T04:31:49;6.27;;;2.00;;
20417;SDS011;10368;51.436;6.774;2022-07-10T04:34:16;3.63;;;1.80;;
20417;SDS011;10368;51.436;6.774;2022-07-10T04:36:44;6.13;;;2.20;;
20417;SDS011;10368;51.436;6.774;2022-07-10T04:39:11;8.33;;;2.00;;
20417;SDS011;10368;51.436;6.774;2022-07-10T04:41:39;4.20;;;1.93;;
20417;SDS011;10368;51.436;6.774;2022-07-10T04:44:06;4.57;;;1.70;;
20417;SDS011;10368;51.436;6.774;2022-07-10T04:46:34;5.13;;;1.70;;
20417;SDS011;10368;51.436;6.774;2022-07-10T04:49:01;5.07;;;2.30;;
20417;SDS011;10368;51.436;6.774;2022-07-10T04:51:28;4.80;;;2.17;;
20417;SDS011;10368;51.436;6.774;2022-07-10T04:53:57;3.83;;;2.13;;
20417;SDS011;10368;51.436;6.774;2022-07-10T04:56:24;12.43;;;2.00;;
20417;SDS011;10368;51.436;6.774;2022-07-10T04:58:51;2.27;;;1.77;;
20417;SDS011;10368;51.436;6.774;2022-07-10T05:01:19;5.23;;;2.03;;
20417;SDS011;10368;51.436;6.774;2022-07-10T05:03:47;4.00;;;2.30;;
20417;SDS011;10368;51.436;6.774;2022-07-10T05:06:14;3.77;;;2.60;;
20417;SDS011;10368;51.436;6.774;2022-07-10T05:08:42;4.83;;;2.50;;
20417;SDS011;10368;51.436;6.774;2022-07-10T05:11:10;7.40;;;2.97;;
20417;SDS011;10368;51.436;6.774;2022-07-10T05:13:37;5.27;;;3.33;;
20417;SDS011;10368;51.436;6.774;2022-07-10T05:16:05;5.20;;;3.13;;
20417;SDS011;10368;51.436;6.774;2022-07-10T05:18:32;10.87;;;4.10;;
20417;SDS011;10368;51.436;6.774;2022-07-10T05:21:00;6.23;;;3.03;;
20417;SDS011;10368;51.436;6.774;2022-07-10T05:23:27;8.40;;;2.63;;
20417;SDS011;10368;51.436;6.774;2022-07-10T05:25:54;7.60;;;2.45;;
20417;SDS011;10368;51.436;6.774;2022-07-10T05:28:22;4.53;;;2.25;;
20417;SDS011;10368;51.436;6.774;2022-07-10T05:30:49;6.68;;;2.38;;
20417;SDS011;10368;51.436;6.774;2022-07-10T05:33:16;6.80;;;2.77;;
20417;SDS011;10368;51.436;6.774;2022-07-10T05:35:44;7.60;;;2.17;;
20417;SDS011;10368;51.436;6.774;2022-07-10T05:38:11;7.30;;;2.50;;
20417;SDS011;10368;51.436;6.774;2022-07-10T05:40:38;6.63;;;2.40;;
20417;SDS011;10368;51.436;6.774;2022-07-10T05:43:06;8.80;;;2.22;;
20417;SDS011;10368;51.436;6.774;2022-07-10T05:45:33;5.97;;;2.33;;
20417;SDS011;10368;51.436;6.774;2022-07-10T05:48:00;6.40;;;1.75;;
20417;SDS011;10368;51.436;6.774;2022-07-10T05:50:28;3.80;;;1.83;;
20417;SDS011;10368;51.436;6.774;2022-07-10T05:52:56;2.90;;;1.63;;
20417;SDS011;10368;51.436;6.774;2022-07-10T05:55:24;8.93;;;2.05;;
20417;SDS011;10368;51.436;6.774;2022-07-10T05:57:54;6.55;;;2.00;;
20417;SDS011;10368;51.436;6.774;2022-07-10T06:00:22;5.90;;;1.90;;
20417;SDS011;10368;51.436;6.774;2022-07-10T06:02:49;3.25;;;1.58;;
20417;SDS011;10368;51.436;6.774;2022-07-10T06:05:17;4.75;;;1.67;;
20417;SDS011;10368;51.436;6.774;2022-07-10T06:07:46;4.22;;;1.80;;
20417;SDS011;10368;51.436;6.774;2022-07-10T06:10:13;11.20;;;2.45;;
20417;SDS011;10368;51.436;6.774;2022-07-10T06:12:40;5.50;;;1.92;;
20417;SDS011;10368;51.436;6.774;2022-07-10T06:15:08;6.88;;;1.98;;
20417;SDS011;10368;51.436;6.774;2022-07-10T06:17:43;5.85;;;1.85;;
20417;SDS011;10368;51.436;6.774;2022-07-10T06:20:11;9.73;;;2.08;;
20417;SDS011;10368;51.436;6.774;2022-07-10T06:22:39;4.63;;;2.50;;
20417;SDS011;10368;51.436;6.774;2022-07-10T06:25:07;4.53;;;1.70;;
20417;SDS011;10368;51.436;6.774;2022-07-10T06:27:35;4.90;;;1.60;;
20417;SDS011;10368;51.436;6.774;2022-07-10T06:30:02;6.22;;;1.70;;
20417;SDS011;10368;51.436;6.774;2022-07-10T06:32:30;3.72;;;1.92;;
20417;SDS011;10368;51.436;6.774;2022-07-10T06:34:57;6.00;;;1.85;;
20417;SDS011;10368;51.436;6.774;2022-07-10T06:37:24;2.65;;;1.50;;
20417;SDS011;10368;51.436;6.774;2022-07-10T06:39:52;4.32;;;1.77;;
20417;SDS011;10368;51.436;6.774;2022-07-10T06:42:19;6.60;;;1.92;;
20417;SDS011;10368;51.436;6.774;2022-07-10T06:44:46;4.75;;;1.67;;
20417;SDS011;10368;51.436;6.774;2022-07-10T06:47:15;5.10;;;2.40;;
20417;SDS011;10368;51.436;6.774;2022-07-10T06:50:03;4.60;;;1.85;;
20417;SDS011;10368;51.436;6.774;2022-07-10T06:52:34;5.40;;;1.98;;
20417;SDS011;10368;51.436;6.774;2022-07-10T06:55:02;5.53;;;2.35;;
20417;SDS011;10368;51.436;6.774;2022-07-10T06:57:29;4.72;;;1.80;;
20417;SDS011;10368;51.436;6.774;2022-07-10T06:59:57;5.28;;;1.67;;
20417;SDS011;10368;51.436;6.774;2022-07-10T07:02:25;7.90;;;1.92;;
20417;SDS011;10368;51.436;6.774;2022-07-10T07:04:52;6.65;;;1.90;;
20417;SDS011;10368;51.436;6.774;2022-07-10T07:07:23;5.57;;;2.08;;
20417;SDS011;10368;51.436;6.774;2022-07-10T07:09:51;8.57;;;2.00;;
20417;SDS011;10368;51.436;6.774;2022-07-10T07:12:18;4.78;;;1.90;;
20417;SDS011;10368;51.436;6.774;2022-07-10T07:14:46;3.90;;;2.33;;
20417;SDS011;10368;51.436;6.774;2022-07-10T07:17:13;10.10;;;2.72;;
20417;SDS011;10368;51.436;6.774;2022-07-10T07:19:48;3.95;;;2.63;;
20417;SDS011;10368;51.436;6.774;2022-07-10T07:22:35;5.18;;;2.13;;
20417;SDS011;10368;51.436;6.774;2022-07-10T07:25:21;9.18;;;2.80;;
20417;SDS011;10368;51.436;6.774;2022-07-10T07:27:48;4.50;;;2.63;;
20417;SDS011;10368;51.436;6.774;2022-07-10T07:30:16;4.70;;;2.42;;
20417;SDS011;10368;51.436;6.774;2022-07-10T07:32:44;6.80;;;2.30;;
20417;SDS011;10368;51.436;6.774;2022-07-10T07:35:13;11.07;;;2.63;;
20417;SDS011;10368;51.436;6.774;2022-07-10T07:37:42;5.78;;;2.83;;
20417;SDS011;10368;51.436;6.774;2022-07-10T07:40:10;10.75;;;2.63;;
20417;SDS011;10368;51.436;6.774;2022-07-10T07:42:38;5.70;;;2.15;;
20417;SDS011;10368;51.436;6.774;2022-07-10T07:45:07;4.53;;;2.35;;
20417;SDS011;10368;51.436;6.774;2022-07-10T07:47:42;5.22;;;2.00;;
20417;SDS011;10368;51.436;6.774;2022-07-10T07:50:11;8.32;;;3.80;;
20417;SDS011;10368;51.436;6.774;2022-07-10T07:52:39;3.22;;;2.92;;
20417;SDS011;10368;51.436;6.774;2022-07-10T07:55:06;11.02;;;2.70;;
20417;SDS011;10368;51.436;6.774;2022-07-10T07:57:34;8.60;;;2.88;;
20417;SDS011;10368;51.436;6.774;2022-07-10T08:00:01;4.82;;;2.38;;
20417;SDS011;10368;51.436;6.774;2022-07-10T08:02:29;7.20;;;2.60;;
20417;SDS011;10368;51.436;6.774;2022-07-10T08:04:57;4.68;;;2.83;;
20417;SDS011;10368;51.436;6.774;2022-07-10T08:07:32;8.25;;;4.15;;
20417;SDS011;10368;51.436;6.774;2022-07-10T08:10:00;4.03;;;2.47;;
20417;SDS011;10368;51.436;6.774;2022-07-10T08:12:27;6.72;;;2.42;;
20417;SDS011;10368;51.436;6.774;2022-07-10T08:14:55;6.57;;;2.53;;
20417;SDS011;10368;51.436;6.774;2022-07-10T08:17:22;5.00;;;2.45;;
20417;SDS011;10368;51.436;6.774;2022-07-10T08:19:49;6.30;;;2.78;;
20417;SDS011;10368;51.436;6.774;2022-07-10T08:22:17;4.78;;;2.67;;
20417;SDS011;10368;51.436;6.774;2022-07-10T08:24:44;4.95;;;2.70;;
20417;SDS011;10368;51.436;6.774;2022-07-10T08:27:11;6.32;;;3.00;;
20417;SDS011;10368;51.436;6.774;2022-07-10T08:29:39;5.13;;;3.40;;
20417;SDS011;10368;51.436;6.774;2022-07-10T08:32:06;8.15;;;3.72;;
20417;SDS011;10368;51.436;6.774;2022-07-10T08:34:36;7.45;;;4.07;;
20417;SDS011;10368;51.436;6.774;2022-07-10T08:37:03;8.52;;;4.25;;
20417;SDS011;10368;51.436;6.774;2022-07-10T08:39:31;5.05;;;3.80;;
20417;SDS011;10368;51.436;6.774;2022-07-10T08:41:59;21.23;;;7.80;;
20417;SDS011;10368;51.436;6.774;2022-07-10T08:44:26;9.13;;;3.75;;
20417;SDS011;10368;51.436;6.774;2022-07-10T08:46:55;5.05;;;3.17;;
20417;SDS011;10368;51.436;6.774;2022-07-10T08:49:26;5.03;;;3.55;;
20417;SDS011;10368;51.436;6.774;2022-07-10T08:54:29;4.53;;;2.92;;
20417;SDS011;10368;51.436;6.774;2022-07-10T08:56:57;4.63;;;3.40;;
20417;SDS011;10368;51.436;6.774;2022-07-10T08:59:24;9.80;;;3.90;;
20417;SDS011;10368;51.436;6.774;2022-07-10T09:01:57;13.27;;;7.55;;
20417;SDS011;10368;51.436;6.774;2022-07-10T09:04:26;8.90;;;3.65;;
20417;SDS011;10368;51.436;6.774;2022-07-10T09:06:53;11.07;;;5.20;;
20417;SDS011;10368;51.436;6.774;2022-07-10T09:09:22;7.97;;;4.53;;
20417;SDS011;10368;51.436;6.774;2022-07-10T09:11:54;6.63;;;3.55;;
20417;SDS011;10368;51.436;6.774;2022-07-10T09:14:25;4.50;;;3.00;;
20417;SDS011;10368;51.436;6.774;2022-07-10T09:17:01;5.20;;;3.17;;
20417;SDS011;10368;51.436;6.774;2022-07-10T09:19:30;7.43;;;3.85;;
20417;SDS011;10368;51.436;6.774;2022-07-10T09:22:07;7.05;;;2.90;;
20417;SDS011;10368;51.436;6.774;2022-07-10T09:24:35;4.35;;;2.53;;
20417;SDS011;10368;51.436;6.774;2022-07-10T09:27:03;10.68;;;3.38;;
20417;SDS011;10368;51.436;6.774;2022-07-10T09:29:31;6.60;;;2.95;;
20417;SDS011;10368;51.436;6.774;2022-07-10T09:31:59;8.82;;;4.05;;
20417;SDS011;10368;51.436;6.774;2022-07-10T09:37:23;8.48;;;6.57;;
20417;SDS011;10368;51.436;6.774;2022-07-10T09:39:55;7.13;;;4.03;;
20417;SDS011;10368;51.436;6.774;2022-07-10T09:45:14;8.70;;;3.75;;
20417;SDS011;10368;51.436;6.774;2022-07-10T09:47:54;11.00;;;5.97;;
20417;SDS011;10368;51.436;6.774;2022-07-10T09:52:52;10.70;;;5.70;;
20417;SDS011;10368;51.436;6.774;2022-07-10T09:55:21;7.72;;;3.80;;
20417;SDS011;10368;51.436;6.774;2022-07-10T09:58:08;3.58;;;2.97;;
20417;SDS011;10368;51.436;6.774;2022-07-10T10:00:39;4.05;;;2.92;;
20417;SDS011;10368;51.436;6.774;2022-07-10T10:03:09;3.00;;;2.17;;
20417;SDS011;10368;51.436;6.774;2022-07-10T10:05:45;3.65;;;2.15;;
20417;SDS011;10368;51.436;6.774;2022-07-10T10:08:19;2.10;;;1.75;;
20417;SDS011;10368;51.436;6.774;2022-07-10T10:10:48;2.60;;;1.45;;
20417;SDS011;10368;51.436;6.774;2022-07-10T10:13:17;1.60;;;1.20;;
20417;SDS011;10368;51.436;6.774;2022-07-10T10:15:45;3.20;;;1.73;;
20417;SDS011;10368;51.436;6.774;2022-07-10T10:18:15;2.00;;;1.70;;
20417;SDS011;10368;51.436;6.774;2022-07-10T10:20:44;3.92;;;1.60;;
20417;SDS011;10368;51.436;6.774;2022-07-10T10:23:13;1.25;;;1.15;;
20417;SDS011;10368;51.436;6.774;2022-07-10T10:25:41;2.05;;;1.38;;
20417;SDS011;10368;51.436;6.774;2022-07-10T10:28:09;2.42;;;1.63;;
20417;SDS011;10368;51.436;6.774;2022-07-10T10:30:42;1.38;;;1.27;;
20417;SDS011;10368;51.436;6.774;2022-07-10T10:35:56;2.13;;;1.90;;
20417;SDS011;10368;51.436;6.774;2022-07-10T10:38:23;3.47;;;2.10;;
20417;SDS011;10368;51.436;6.774;2022-07-10T10:40:51;2.55;;;1.73;;
20417;SDS011;10368;51.436;6.774;2022-07-10T10:43:19;3.47;;;2.00;;
20417;SDS011;10368;51.436;6.774;2022-07-10T10:45:47;2.00;;;1.77;;
20417;SDS011;10368;51.436;6.774;2022-07-10T10:48:15;3.42;;;2.08;;
20417;SDS011;10368;51.436;6.774;2022-07-10T10:51:03;2.00;;;1.70;;
20417;SDS011;10368;51.436;6.774;2022-07-10T10:53:31;5.20;;;2.80;;
20417;SDS011;10368;51.436;6.774;2022-07-10T11:06:41;2.20;;;1.80;;
20417;SDS011;10368;51.436;6.774;2022-07-10T11:11:58;2.25;;;2.03;;
20417;SDS011;10368;51.436;6.774;2022-07-10T11:14:26;2.95;;;1.60;;
20417;SDS011;10368;51.436;6.774;2022-07-10T11:16:55;2.97;;;1.92;;
20417;SDS011;10368;51.436;6.774;2022-07-10T11:19:27;5.43;;;2.58;;
20417;SDS011;10368;51.436;6.774;2022-07-10T11:29:57;1.90;;;1.70;;
20417;SDS011;10368;51.436;6.774;2022-07-10T11:32:25;2.25;;;1.80;;
20417;SDS011;10368;51.436;6.774;2022-07-10T11:34:52;3.85;;;1.70;;
20417;SDS011;10368;51.436;6.774;2022-07-10T11:37:20;5.13;;;2.55;;
20417;SDS011;10368;51.436;6.774;2022-07-10T11:39:48;2.15;;;1.50;;
20417;SDS011;10368;51.436;6.774;2022-07-10T11:42:16;4.28;;;1.65;;
20417;SDS011;10368;51.436;6.774;2022-07-10T11:44:43;3.90;;;1.70;;
20417;SDS011;10368;51.436;6.774;2022-07-10T11:47:10;4.30;;;2.30;;
20417;SDS011;10368;51.436;6.774;2022-07-10T11:49:47;3.85;;;2.20;;
20417;SDS011;10368;51.436;6.774;2022-07-10T11:52:14;3.15;;;1.67;;
20417;SDS011;10368;51.436;6.774;2022-07-10T11:54:41;3.58;;;1.77;;
20417;SDS011;10368;51.436;6.774;2022-07-10T11:57:10;4.32;;;1.80;;
20417;SDS011;10368;51.436;6.774;2022-07-10T11:59:38;4.50;;;1.95;;
20417;SDS011;10368;51.436;6.774;2022-07-10T12:02:05;2.67;;;1.80;;
20417;SDS011;10368;51.436;6.774;2022-07-10T12:04:33;4.68;;;2.47;;
20417;SDS011;10368;51.436;6.774;2022-07-10T12:07:00;3.90;;;2.00;;
20417;SDS011;10368;51.436;6.774;2022-07-10T12:09:28;5.50;;;2.55;;
20417;SDS011;10368;51.436;6.774;2022-07-10T12:12:00;3.28;;;2.58;;
20417;SDS011;10368;51.436;6.774;2022-07-10T12:14:27;5.22;;;2.40;;
20417;SDS011;10368;51.436;6.774;2022-07-10T12:16:55;4.78;;;2.70;;
20417;SDS011;10368;51.436;6.774;2022-07-10T12:19:24;3.85;;;2.70;;
20417;SDS011;10368;51.436;6.774;2022-07-10T12:21:52;6.78;;;3.35;;
20417;SDS011;10368;51.436;6.774;2022-07-10T12:24:24;5.82;;;3.25;;
20417;SDS011;10368;51.436;6.774;2022-07-10T12:26:53;3.13;;;2.70;;
20417;SDS011;10368;51.436;6.774;2022-07-10T12:32:01;5.18;;;2.58;;
20417;SDS011;10368;51.436;6.774;2022-07-10T12:34:39;6.28;;;3.15;;
20417;SDS011;10368;51.436;6.774;2022-07-10T12:37:09;4.50;;;3.17;;
20417;SDS011;10368;51.436;6.774;2022-07-10T12:39:38;11.88;;;9.80;;
20417;SDS011;10368;51.436;6.774;2022-07-10T12:42:06;5.47;;;2.80;;
20417;SDS011;10368;51.436;6.774;2022-07-10T12:47:03;2.47;;;2.00;;
20417;SDS011;10368;51.436;6.774;2022-07-10T12:50:22;4.10;;;2.13;;
20417;SDS011;10368;51.436;6.774;2022-07-10T12:52:24;3.85;;;2.65;;
20417;SDS011;10368;51.436;6.774;2022-07-10T12:55:17;2.78;;;1.95;;
20417;SDS011;10368;51.436;6.774;2022-07-10T12:57:52;3.67;;;1.92;;
20417;SDS011;10368;51.436;6.774;2022-07-10T13:02:58;9.18;;;2.63;;
20417;SDS011;10368;51.436;6.774;2022-07-10T13:05:39;3.50;;;2.08;;
20417;SDS011;10368;51.436;6.774;2022-07-10T13:08:11;3.38;;;2.08;;
20417;SDS011;10368;51.436;6.774;2022-07-10T13:10:55;5.05;;;2.60;;
20417;SDS011;10368;51.436;6.774;2022-07-10T13:13:23;3.00;;;2.67;;
20417;SDS011;10368;51.436;6.774;2022-07-10T13:15:53;2.90;;;1.38;;
20417;SDS011;10368;51.436;6.774;2022-07-10T13:18:21;2.55;;;1.75;;
20417;SDS011;10368;51.436;6.774;2022-07-10T13:20:51;3.63;;;1.60;;
20417;SDS011;10368;51.436;6.774;2022-07-10T13:23:27;3.88;;;1.60;;
20417;SDS011;10368;51.436;6.774;2022-07-10T13:25:54;1.85;;;1.42;;
20417;SDS011;10368;51.436;6.774;2022-07-10T13:28:25;1.90;;;1.60;;
20417;SDS011;10368;51.436;6.774;2022-07-10T13:30:53;2.80;;;1.30;;
20417;SDS011;10368;51.436;6.774;2022-07-10T13:33:20;1.25;;;1.08;;
20417;SDS011;10368;51.436;6.774;2022-07-10T13:35:49;2.90;;;1.95;;
20417;SDS011;10368;51.436;6.774;2022-07-10T13:38:17;2.42;;;1.73;;
20417;SDS011;10368;51.436;6.774;2022-07-10T13:40:45;2.03;;;1.45;;
20417;SDS011;10368;51.436;6.774;2022-07-10T13:43:13;4.97;;;2.30;;
20417;SDS011;10368;51.436;6.774;2022-07-10T13:45:43;1.55;;;1.20;;
20417;SDS011;10368;51.436;6.774;2022-07-10T13:48:10;1.42;;;1.20;;
20417;SDS011;10368;51.436;6.774;2022-07-10T13:50:47;1.30;;;1.20;;
20417;SDS011;10368;51.436;6.774;2022-07-10T13:53:14;1.70;;;1.02;;
20417;SDS011;10368;51.436;6.774;2022-07-10T13:55:42;1.60;;;1.17;;
20417;SDS011;10368;51.436;6.774;2022-07-10T13:58:10;2.53;;;1.20;;
20417;SDS011;10368;51.436;6.774;2022-07-10T14:00:38;1.92;;;1.40;;
20417;SDS011;10368;51.436;6.774;2022-07-10T14:03:05;2.35;;;1.30;;
20417;SDS011;10368;51.436;6.774;2022-07-10T14:05:33;1.95;;;1.17;;
20417;SDS011;10368;51.436;6.774;2022-07-10T14:08:01;1.52;;;1.20;;
20417;SDS011;10368;51.436;6.774;2022-07-10T14:10:29;2.05;;;1.63;;
20417;SDS011;10368;51.436;6.774;2022-07-10T14:12:56;4.07;;;1.70;;
20417;SDS011;10368;51.436;6.774;2022-07-10T14:15:23;3.55;;;2.08;;
20417;SDS011;10368;51.436;6.774;2022-07-10T14:17:53;4.80;;;1.70;;
20417;SDS011;10368;51.436;6.774;2022-07-10T14:20:21;2.25;;;1.38;;
20417;SDS011;10368;51.436;6.774;2022-07-10T14:22:48;3.85;;;2.00;;
20417;SDS011;10368;51.436;6.774;2022-07-10T14:25:16;1.63;;;1.45;;
20417;SDS011;10368;51.436;6.774;2022-07-10T14:27:43;3.78;;;1.55;;
20417;SDS011;10368;51.436;6.774;2022-07-10T14:30:10;3.58;;;1.40;;
20417;SDS011;10368;51.436;6.774;2022-07-10T14:32:37;1.90;;;1.27;;
20417;SDS011;10368;51.436;6.774;2022-07-10T14:35:05;4.75;;;1.95;;
20417;SDS011;10368;51.436;6.774;2022-07-10T14:37:34;1.95;;;1.45;;
20417;SDS011;10368;51.436;6.774;2022-07-10T14:40:02;1.50;;;1.38;;
20417;SDS011;10368;51.436;6.774;2022-07-10T14:42:30;3.05;;;1.60;;
20417;SDS011;10368;51.436;6.774;2022-07-10T14:44:57;2.10;;;1.25;;
20417;SDS011;10368;51.436;6.774;2022-07-10T14:47:24;2.15;;;1.45;;
20417;SDS011;10368;51.436;6.774;2022-07-10T14:49:51;1.52;;;1.35;;
20417;SDS011;10368;51.436;6.774;2022-07-10T14:52:18;2.15;;;1.90;;
20417;SDS011;10368;51.436;6.774;2022-07-10T14:54:47;2.03;;;1.58;;
20417;SDS011;10368;51.436;6.774;2022-07-10T14:57:17;5.75;;;1.25;;
20417;SDS011;10368;51.436;6.774;2022-07-10T14:59:44;1.40;;;1.30;;
20417;SDS011;10368;51.436;6.774;2022-07-10T15:02:11;1.58;;;1.48;;
20417;SDS011;10368;51.436;6.774;2022-07-10T15:04:38;1.50;;;1.20;;
20417;SDS011;10368;51.436;6.774;2022-07-10T15:07:05;2.28;;;1.52;;
20417;SDS011;10368;51.436;6.774;2022-07-10T15:09:32;2.95;;;1.42;;
20417;SDS011;10368;51.436;6.774;2022-07-10T15:11:59;2.67;;;1.50;;
20417;SDS011;10368;51.436;6.774;2022-07-10T15:14:26;1.30;;;1.08;;
20417;SDS011;10368;51.436;6.774;2022-07-10T15:16:55;5.18;;;1.50;;
20417;SDS011;10368;51.436;6.774;2022-07-10T15:19:22;3.63;;;1.38;;
20417;SDS011;10368;51.436;6.774;2022-07-10T15:21:49;2.10;;;1.30;;
20417;SDS011;10368;51.436;6.774;2022-07-10T15:24:17;4.45;;;1.45;;
20417;SDS011;10368;51.436;6.774;2022-07-10T15:26:44;3.53;;;1.60;;
20417;SDS011;10368;51.436;6.774;2022-07-10T15:29:11;1.45;;;1.23;;
20417;SDS011;10368;51.436;6.774;2022-07-10T15:31:39;2.28;;;1.38;;
20417;SDS011;10368;51.436;6.774;2022-07-10T15:34:07;1.30;;;1.10;;
20417;SDS011;10368;51.436;6.774;2022-07-10T15:36:38;4.22;;;1.52;;
20417;SDS011;10368;51.436;6.774;2022-07-10T15:39:05;2.75;;;1.35;;